Time;durP1;ratioP1;P1;durP2;ratioP2;P2;SDS_P1;SDS_P2;PMS_P1;PMS_P2;Temp;Humidity;BMP_temperature;BMP_pressure;BME280_temperature;BME280_humidity;BME280_pressure;Samples;Min_cycle;Max_cycle;Signal;HPM_P1;HPM_P2
2022/05/24 00:00:10;;;;;;;2.25;1.55;;;16.90;99.90;;;;;;5074390;28;20047;-76
2022/05/24 00:02:39;;;;;;;1.30;1.00;;;16.90;99.90;;;;;;5067324;28;20441;-74
2022/05/24 00:05:08;;;;;;;13.43;1.60;;;16.90;99.90;;;;;;5056926;28;20040;-73
2022/05/24 00:07:36;;;;;;;2.17;0.82;;;16.90;99.90;;;;;;5069722;28;20036;-73
2022/05/24 00:10:03;;;;;;;1.77;1.02;;;16.90;99.90;;;;;;5067199;28;20075;-73
2022/05/24 00:12:29;;;;;;;1.05;0.95;;;16.90;99.90;;;;;;5069012;28;20055;-73
2022/05/24 00:17:41;;;;;;;1.45;1.33;;;17.00;99.90;;;;;;5072945;28;20048;-73
2022/05/24 00:20:07;;;;;;;1.58;1.23;;;17.10;99.90;;;;;;5071922;28;20359;-75
2022/05/24 00:22:33;;;;;;;5.22;1.15;;;17.10;99.90;;;;;;5072753;28;20034;-73
2022/05/24 00:25:01;;;;;;;1.25;0.75;;;17.10;99.90;;;;;;5068671;28;20029;-73
2022/05/24 00:27:28;;;;;;;1.20;1.10;;;17.10;99.90;;;;;;5077137;28;20051;-73
2022/05/24 00:29:54;;;;;;;1.60;1.20;;;17.10;99.90;;;;;;5056210;28;20489;-73
2022/05/24 00:32:21;;;;;;;1.83;1.23;;;17.10;99.90;;;;;;5070424;28;20036;-74
2022/05/24 00:34:47;;;;;;;1.25;1.02;;;17.10;99.90;;;;;;5048173;28;20048;-73
2022/05/24 00:37:13;;;;;;;0.73;0.73;;;17.10;99.90;;;;;;5073975;28;20041;-73
2022/05/24 00:39:40;;;;;;;1.00;0.90;;;17.00;99.90;;;;;;5069350;28;20040;-74
2022/05/24 00:42:22;;;;;;;0.95;0.85;;;17.00;99.90;;;;;;5071587;28;20045;-73
2022/05/24 00:45:01;;;;;;;1.23;1.10;;;17.10;99.90;;;;;;5053997;28;20040;-73
2022/05/24 00:47:30;;;;;;;0.90;0.75;;;17.10;99.90;;;;;;5074196;28;20028;-72
2022/05/24 00:50:05;;;;;;;4.13;1.25;;;17.10;99.90;;;;;;5054706;28;20031;-73
2022/05/24 00:52:40;;;;;;;2.72;1.10;;;17.10;99.90;;;;;;5053590;28;20147;-73
2022/05/24 00:55:11;;;;;;;1.00;0.90;;;17.10;99.90;;;;;;5068231;28;20354;-74
2022/05/24 00:57:47;;;;;;;1.13;1.00;;;17.10;99.90;;;;;;5073601;28;20032;-73
2022/05/24 01:00:18;;;;;;;1.92;1.33;;;17.10;99.90;;;;;;5067629;28;20044;-73
2022/05/24 01:02:45;;;;;;;1.40;1.25;;;17.10;99.90;;;;;;5073242;28;20058;-73
2022/05/24 01:05:21;;;;;;;1.20;1.02;;;17.10;99.90;;;;;;5073193;28;20099;-73
2022/05/24 01:07:47;;;;;;;2.30;1.63;;;17.10;99.90;;;;;;5055411;28;20036;-73
2022/05/24 01:10:36;;;;;;;1.75;1.50;;;17.10;99.90;;;;;;5061910;28;20048;-74
2022/05/24 01:13:08;;;;;;;1.23;1.13;;;17.10;99.90;;;;;;5092707;28;20035;-73
2022/05/24 01:15:36;;;;;;;0.95;0.82;;;17.10;99.90;;;;;;5089773;28;20043;-73
2022/05/24 01:18:04;;;;;;;1.38;0.82;;;17.00;99.90;;;;;;5088566;28;20056;-73
2022/05/24 01:20:30;;;;;;;2.55;0.98;;;17.00;99.90;;;;;;5092312;28;20465;-72
2022/05/24 01:23:19;;;;;;;1.20;0.88;;;17.00;99.90;;;;;;5085095;28;20035;-73
2022/05/24 01:25:57;;;;;;;1.00;0.95;;;17.00;99.90;;;;;;5080705;28;20028;-73
2022/05/24 01:28:41;;;;;;;1.10;1.00;;;17.00;99.90;;;;;;5093131;28;20404;-73
2022/05/24 01:31:09;;;;;;;2.22;1.38;;;17.00;99.90;;;;;;5092214;28;20039;-73
2022/05/24 01:36:24;;;;;;;2.25;1.42;;;16.90;99.90;;;;;;5087409;28;20043;-73
2022/05/24 01:39:00;;;;;;;3.50;1.70;;;17.00;99.90;;;;;;5086891;28;20032;-73
2022/05/24 01:41:35;;;;;;;3.72;1.70;;;17.00;99.90;;;;;;5089048;28;20123;-73
2022/05/24 01:44:03;;;;;;;2.33;1.77;;;17.00;99.90;;;;;;5087494;28;20052;-73
2022/05/24 01:46:36;;;;;;;2.63;1.30;;;16.90;99.90;;;;;;5086651;28;20036;-73
2022/05/24 01:49:34;;;;;;;1.23;1.13;;;16.90;99.90;;;;;;5088994;28;20036;-73
2022/05/24 01:52:38;;;;;;;1.42;1.33;;;16.90;99.90;;;;;;5073007;28;20047;-73
2022/05/24 01:55:09;;;;;;;1.20;1.08;;;16.90;99.90;;;;;;5090212;28;20028;-73
2022/05/24 01:57:43;;;;;;;1.95;1.63;;;16.90;99.90;;;;;;5093158;28;20129;-73
2022/05/24 02:00:13;;;;;;;1.75;1.48;;;16.90;99.90;;;;;;5090645;28;20040;-72
2022/05/24 02:02:44;;;;;;;1.45;1.35;;;16.80;99.90;;;;;;5090854;28;20052;-73
2022/05/24 02:05:11;;;;;;;2.50;1.85;;;16.80;99.90;;;;;;5089071;28;20035;-72
2022/05/24 02:07:39;;;;;;;2.28;1.52;;;16.70;99.90;;;;;;5091879;28;20442;-72
2022/05/24 02:10:06;;;;;;;2.90;1.50;;;16.70;99.90;;;;;;5094850;28;20036;-73
2022/05/24 02:12:44;;;;;;;2.38;1.70;;;16.70;99.90;;;;;;5097408;28;20039;-72
2022/05/24 02:15:13;;;;;;;2.78;1.67;;;16.70;99.90;;;;;;5097670;28;20044;-73
2022/05/24 02:17:53;;;;;;;3.00;2.50;;;16.70;99.90;;;;;;5096925;28;20043;-76
2022/05/24 02:20:23;;;;;;;2.20;1.70;;;16.60;99.90;;;;;;5086150;28;20031;-73
2022/05/24 02:22:50;;;;;;;2.00;1.42;;;16.60;99.90;;;;;;5085157;28;20043;-74
2022/05/24 02:25:34;;;;;;;4.07;2.15;;;16.50;99.90;;;;;;5090511;28;20033;-74
2022/05/24 02:28:02;;;;;;;2.63;2.15;;;16.50;99.90;;;;;;5090986;28;20326;-72
2022/05/24 02:30:30;;;;;;;4.32;2.22;;;16.50;99.90;;;;;;5090209;28;20040;-74
2022/05/24 02:32:56;;;;;;;2.08;1.88;;;16.50;99.90;;;;;;5085145;28;20028;-74
2022/05/24 02:35:24;;;;;;;1.67;1.58;;;16.50;99.90;;;;;;5083740;28;20040;-75
2022/05/24 02:37:50;;;;;;;2.70;2.05;;;16.50;99.90;;;;;;5090619;28;20040;-73
2022/05/24 02:43:02;;;;;;;2.45;1.88;;;16.50;99.90;;;;;;5085412;28;20035;-75
2022/05/24 02:45:28;;;;;;;2.30;2.03;;;16.40;99.90;;;;;;5087518;28;20044;-72
2022/05/24 02:47:54;;;;;;;2.25;1.90;;;16.40;99.90;;;;;;5091300;28;20028;-72
2022/05/24 02:50:21;;;;;;;3.00;1.67;;;16.30;99.90;;;;;;5085666;28;20036;-72
2022/05/24 02:52:47;;;;;;;4.10;2.53;;;16.30;99.90;;;;;;5087492;28;20033;-72
2022/05/24 02:55:16;;;;;;;5.22;2.75;;;16.30;99.90;;;;;;5087493;28;20031;-72
2022/05/24 02:57:43;;;;;;;8.50;2.58;;;16.20;99.90;;;;;;5090183;28;20497;-72
2022/05/24 03:00:17;;;;;;;5.13;2.78;;;16.20;99.90;;;;;;5088458;28;20036;-72
2022/05/24 03:02:43;;;;;;;2.80;2.17;;;16.20;99.90;;;;;;5085880;28;20059;-73
2022/05/24 03:05:12;;;;;;;2.05;1.58;;;16.10;99.90;;;;;;5088066;28;20389;-72
2022/05/24 03:10:24;;;;;;;5.38;2.53;;;16.20;99.90;;;;;;5071086;28;20052;-72
2022/05/24 03:15:40;;;;;;;3.80;2.70;;;16.10;99.90;;;;;;5050989;28;20024;-72
2022/05/24 03:18:07;;;;;;;4.00;2.15;;;16.10;99.90;;;;;;5063761;28;20724;-72
2022/05/24 03:20:34;;;;;;;5.47;2.53;;;16.00;99.90;;;;;;5062639;28;20517;-72
2022/05/24 03:23:02;;;;;;;2.80;2.58;;;16.00;99.90;;;;;;5069078;28;20423;-73
2022/05/24 03:25:31;;;;;;;2.25;1.98;;;16.00;99.90;;;;;;5070218;28;20033;-72
2022/05/24 03:27:59;;;;;;;3.70;3.15;;;16.00;99.90;;;;;;5072840;28;20040;-72
2022/05/24 03:30:26;;;;;;;2.95;2.42;;;15.90;99.90;;;;;;5072611;28;20476;-72
2022/05/24 03:32:53;;;;;;;2.75;2.47;;;15.90;99.90;;;;;;5065535;28;20029;-72
2022/05/24 03:35:20;;;;;;;3.53;3.22;;;15.90;99.90;;;;;;5072692;28;20036;-74
2022/05/24 03:37:46;;;;;;;2.75;2.55;;;16.00;99.90;;;;;;5070535;28;20035;-73
2022/05/24 03:40:13;;;;;;;2.80;2.38;;;16.00;99.90;;;;;;5067217;28;20032;-73
2022/05/24 03:42:40;;;;;;;3.30;3.03;;;16.00;99.90;;;;;;5064009;28;20033;-72
2022/05/24 03:45:08;;;;;;;3.65;3.13;;;16.00;99.90;;;;;;5069796;28;20033;-73
2022/05/24 03:47:36;;;;;;;1.88;1.77;;;16.00;99.90;;;;;;5072655;28;20021;-73
2022/05/24 03:50:04;;;;;;;3.85;3.15;;;16.00;99.90;;;;;;5066871;28;20516;-73
2022/05/24 03:52:30;;;;;;;2.15;1.95;;;16.00;99.90;;;;;;5052534;28;20039;-73
2022/05/24 03:54:56;;;;;;;2.72;1.98;;;16.00;99.90;;;;;;5073623;28;20024;-73
2022/05/24 04:00:09;;;;;;;2.30;2.10;;;16.00;99.90;;;;;;5068790;28;20029;-73
2022/05/24 04:02:41;;;;;;;3.45;1.95;;;16.00;99.90;;;;;;5068118;28;20484;-73
2022/05/24 04:05:08;;;;;;;3.15;2.28;;;15.90;99.90;;;;;;5072141;28;20036;-74
2022/05/24 04:07:36;;;;;;;2.03;1.67;;;15.90;99.90;;;;;;5066138;28;20020;-71
2022/05/24 04:10:03;;;;;;;4.30;2.45;;;15.90;99.90;;;;;;5065012;28;20044;-74
2022/05/24 04:12:30;;;;;;;2.70;1.90;;;15.90;99.90;;;;;;5069440;28;20382;-72
2022/05/24 04:14:56;;;;;;;2.17;1.55;;;15.90;99.90;;;;;;5073424;28;20036;-73
2022/05/24 04:17:22;;;;;;;1.25;1.15;;;15.90;99.90;;;;;;5067964;28;20036;-73
2022/05/24 04:19:48;;;;;;;2.28;1.65;;;16.00;99.90;;;;;;5066002;28;20504;-73
2022/05/24 04:22:14;;;;;;;1.40;1.27;;;16.00;99.90;;;;;;5073348;28;20024;-73
2022/05/24 04:24:40;;;;;;;1.27;1.13;;;16.00;99.90;;;;;;5073788;28;20402;-76
2022/05/24 04:27:07;;;;;;;1.67;1.50;;;16.00;99.90;;;;;;5067633;28;20048;-73
2022/05/24 04:29:34;;;;;;;1.75;1.65;;;16.10;99.90;;;;;;5072953;28;20489;-74
2022/05/24 04:32:00;;;;;;;1.45;1.33;;;16.10;99.90;;;;;;5072637;28;20251;-73
2022/05/24 04:34:26;;;;;;;1.30;1.20;;;16.20;99.90;;;;;;5073829;28;20411;-73
2022/05/24 04:36:55;;;;;;;1.63;1.45;;;16.20;99.90;;;;;;5069580;28;20386;-73
2022/05/24 04:39:21;;;;;;;1.55;1.45;;;16.20;99.90;;;;;;5070367;28;20040;-73
2022/05/24 04:44:33;;;;;;;1.00;0.90;;;16.20;99.90;;;;;;5068030;28;20044;-74
2022/05/24 04:47:08;;;;;;;1.20;1.10;;;16.30;99.90;;;;;;5067421;28;20059;-73
2022/05/24 04:49:40;;;;;;;2.97;1.50;;;16.50;99.90;;;;;;5072779;28;20032;-74
2022/05/24 04:52:12;;;;;;;1.63;1.33;;;16.60;99.90;;;;;;5052776;28;20031;-73
2022/05/24 04:54:40;;;;;;;1.00;0.82;;;16.70;99.90;;;;;;5055556;28;20028;-74
2022/05/24 04:57:08;;;;;;;3.85;1.33;;;16.80;99.90;;;;;;5073053;28;20496;-74
2022/05/24 04:59:34;;;;;;;1.27;0.90;;;17.20;99.90;;;;;;5066836;28;20362;-74
2022/05/24 05:02:01;;;;;;;2.20;1.15;;;17.40;99.90;;;;;;5071469;28;20036;-73
2022/05/24 05:04:28;;;;;;;1.67;0.80;;;17.30;99.90;;;;;;5063052;28;20044;-73
2022/05/24 05:06:54;;;;;;;2.35;0.95;;;17.20;99.90;;;;;;5067159;28;20508;-73
2022/05/24 05:09:20;;;;;;;3.28;0.93;;;17.10;99.90;;;;;;5070920;28;20040;-73
2022/05/24 05:11:47;;;;;;;1.08;0.68;;;17.00;99.90;;;;;;5071813;28;20060;-72
2022/05/24 05:14:13;;;;;;;1.00;0.82;;;17.00;99.90;;;;;;5068515;28;20413;-74
2022/05/24 05:16:40;;;;;;;9.30;1.27;;;17.10;99.90;;;;;;5064682;28;20028;-72
2022/05/24 05:19:09;;;;;;;0.50;0.50;;;17.20;99.90;;;;;;5070011;28;20055;-72
2022/05/24 05:21:37;;;;;;;1.17;0.90;;;17.30;99.90;;;;;;5065136;28;20036;-72
2022/05/24 05:24:05;;;;;;;1.02;0.65;;;17.40;99.90;;;;;;5067848;28;20485;-72
2022/05/24 05:26:31;;;;;;;2.92;1.05;;;17.70;99.90;;;;;;5068596;28;20025;-72
2022/05/24 05:28:58;;;;;;;1.05;0.95;;;18.20;99.90;;;;;;5068142;28;20044;-72
2022/05/24 05:31:26;;;;;;;0.50;0.45;;;18.00;99.90;;;;;;5065800;28;20033;-71
2022/05/24 05:33:54;;;;;;;0.75;0.60;;;17.40;99.90;;;;;;5068198;28;20036;-71
2022/05/24 05:36:21;;;;;;;0.65;0.57;;;17.10;99.90;;;;;;5068777;28;20103;-71
2022/05/24 05:38:48;;;;;;;0.60;0.60;;;17.00;99.90;;;;;;5068443;28;20040;-72
2022/05/24 05:41:21;;;;;;;6.38;1.30;;;16.90;99.90;;;;;;5067432;28;20028;-72
2022/05/24 05:43:48;;;;;;;1.08;0.73;;;16.80;99.90;;;;;;5052894;28;20048;-72
2022/05/24 05:46:15;;;;;;;3.70;1.27;;;16.80;99.90;;;;;;5070996;28;20059;-73
2022/05/24 05:48:42;;;;;;;5.53;1.15;;;16.80;99.90;;;;;;5065665;28;20095;-75
2022/05/24 05:51:11;;;;;;;1.48;1.17;;;16.80;99.90;;;;;;5064699;28;20477;-74
2022/05/24 05:53:37;;;;;;;1.00;0.75;;;16.70;99.90;;;;;;5069456;28;20044;-73
2022/05/24 05:56:07;;;;;;;0.98;0.75;;;16.60;99.90;;;;;;5068954;28;20025;-72
2022/05/24 05:58:33;;;;;;;0.50;0.50;;;16.60;99.90;;;;;;5068762;28;20036;-73
2022/05/24 06:01:00;;;;;;;0.28;0.20;;;16.50;99.90;;;;;;5069891;28;20037;-73
2022/05/24 06:03:26;;;;;;;0.60;0.40;;;16.60;99.90;;;;;;5066919;28;20043;-74
2022/05/24 06:05:53;;;;;;;5.38;0.60;;;16.70;99.90;;;;;;5052083;28;20466;-73
2022/05/24 06:08:20;;;;;;;0.25;0.25;;;16.70;99.90;;;;;;5067522;28;20056;-73
2022/05/24 06:10:46;;;;;;;0.43;0.40;;;16.80;99.90;;;;;;5055668;28;20037;-73
2022/05/24 06:13:12;;;;;;;1.45;0.45;;;17.00;99.90;;;;;;5071603;28;20381;-73
2022/05/24 06:15:49;;;;;;;1.17;0.40;;;17.30;99.40;;;;;;5070652;28;20051;-73
2022/05/24 06:18:15;;;;;;;0.50;0.30;;;17.40;98.20;;;;;;5070898;28;20033;-73
2022/05/24 06:20:41;;;;;;;0.20;0.20;;;17.10;97.40;;;;;;5063811;28;20037;-74
2022/05/24 06:23:08;;;;;;;1.55;0.45;;;16.80;96.80;;;;;;5065750;28;20036;-72
2022/05/24 06:25:34;;;;;;;0.10;0.10;;;16.60;96.90;;;;;;5060328;28;20032;-73
2022/05/24 06:28:00;;;;;;;0.10;0.10;;;16.60;96.70;;;;;;5061519;28;20039;-73
2022/05/24 06:30:27;;;;;;;0.90;0.60;;;16.50;97.10;;;;;;5053169;28;20051;-73
2022/05/24 06:32:53;;;;;;;1.08;0.68;;;16.30;97.50;;;;;;5070605;28;20504;-73
2022/05/24 06:35:20;;;;;;;2.05;1.13;;;16.30;98.10;;;;;;5074595;28;20025;-74
2022/05/24 06:37:48;;;;;;;0.85;0.40;;;16.30;98.20;;;;;;5049376;28;20049;-74
2022/05/24 06:40:18;;;;;;;4.60;0.70;;;16.20;98.30;;;;;;5065038;28;20051;-73
2022/05/24 06:42:44;;;;;;;1.80;0.40;;;16.20;99.00;;;;;;5069205;28;20401;-76
2022/05/24 06:45:11;;;;;;;0.40;0.30;;;16.30;98.70;;;;;;5051978;28;20032;-73
2022/05/24 06:47:40;;;;;;;0.40;0.25;;;16.40;98.20;;;;;;5049217;28;20473;-73
2022/05/24 06:50:08;;;;;;;0.82;0.45;;;16.50;97.40;;;;;;5059558;28;20025;-73
2022/05/24 06:52:34;;;;;;;0.10;0.10;;;16.60;96.80;;;;;;5050176;28;20029;-74
2022/05/24 06:55:00;;;;;;;0.50;0.35;;;16.60;96.50;;;;;;5064764;28;20036;-74
2022/05/24 06:57:27;;;;;;;0.98;0.50;;;16.60;96.20;;;;;;5068686;28;20063;-74
2022/05/24 07:02:38;;;;;;;0.50;0.30;;;16.70;96.60;;;;;;5064286;28;20100;-73
2022/05/24 07:05:08;;;;;;;0.60;0.30;;;16.70;96.10;;;;;;5069763;28;20040;-73
2022/05/24 07:07:35;;;;;;;;;;;16.50;97.30;;;;;;5063312;28;20044;-74
2022/05/24 07:10:03;;;;;;;2.30;0.43;;;16.30;99.80;;;;;;5043534;28;19916;-73
2022/05/24 07:12:29;;;;;;;2.78;0.40;;;16.10;99.90;;;;;;5081616;28;20051;-73
2022/05/24 07:14:57;;;;;;;0.40;0.40;;;15.80;99.90;;;;;;5085192;28;20043;-73
2022/05/24 07:17:25;;;;;;;0.63;0.52;;;15.40;99.90;;;;;;5082635;28;20046;-74
2022/05/24 07:19:52;;;;;;;3.40;0.52;;;15.30;99.90;;;;;;5081092;28;20039;-74
2022/05/24 07:22:19;;;;;;;0.75;0.50;;;15.30;99.90;;;;;;5086607;28;20020;-74
2022/05/24 07:24:48;;;;;;;0.20;0.20;;;15.40;99.90;;;;;;5084842;28;20377;-74
2022/05/24 07:27:18;;;;;;;0.55;0.30;;;15.50;99.90;;;;;;5081589;28;20051;-73
2022/05/24 07:29:44;;;;;;;1.27;0.55;;;15.70;99.90;;;;;;5086951;28;20525;-76
2022/05/24 07:32:11;;;;;;;0.30;0.30;;;15.90;99.90;;;;;;5088142;28;20028;-73
2022/05/24 07:34:39;;;;;;;0.20;0.20;;;16.10;99.90;;;;;;5089047;28;20051;-73
2022/05/24 07:37:07;;;;;;;0.35;0.30;;;16.50;99.90;;;;;;5090409;28;20035;-74
2022/05/24 07:39:34;;;;;;;0.47;0.30;;;16.50;99.90;;;;;;5082759;28;20036;-73
2022/05/24 07:47:21;;;;;;;1.85;0.80;;;16.20;99.90;;;;;;5090492;28;20036;-73
2022/05/24 07:49:48;;;;;;;0.43;0.30;;;16.20;99.90;;;;;;5084241;28;20028;-73
2022/05/24 07:52:14;;;;;;;1.77;0.50;;;16.50;99.90;;;;;;5086796;28;20032;-73
2022/05/24 07:54:40;;;;;;;0.30;0.20;;;17.30;99.90;;;;;;5089206;28;20020;-73
2022/05/24 07:57:10;;;;;;;0.20;0.20;;;17.80;97.40;;;;;;5088226;28;20023;-74
2022/05/24 07:59:38;;;;;;;2.83;0.52;;;17.60;94.90;;;;;;5085100;28;20040;-74
2022/05/24 08:02:06;;;;;;;3.33;0.40;;;17.20;97.50;;;;;;5083715;28;20028;-73
2022/05/24 08:04:34;;;;;;;0.65;0.30;;;17.20;98.60;;;;;;5087555;28;20362;-73
2022/05/24 08:07:01;;;;;;;2.15;0.28;;;17.00;96.80;;;;;;5084527;28;20027;-73
2022/05/24 08:09:27;;;;;;;1.15;0.40;;;16.80;98.80;;;;;;5082868;28;20150;-73
2022/05/24 08:11:53;;;;;;;0.57;0.45;;;17.00;99.30;;;;;;5067256;28;20056;-73
2022/05/24 08:14:20;;;;;;;0.40;0.40;;;17.70;96.90;;;;;;5067702;28;20044;-73
2022/05/24 08:16:46;;;;;;;0.13;0.13;;;18.70;91.50;;;;;;5070818;28;20048;-74
2022/05/24 08:19:12;;;;;;;4.78;0.60;;;19.60;86.00;;;;;;5069418;28;20051;-74
2022/05/24 08:21:38;;;;;;;0.25;0.20;;;19.80;81.40;;;;;;5071813;28;20032;-73
2022/05/24 08:24:05;;;;;;;0.30;0.30;;;20.00;79.30;;;;;;5072052;28;20620;-74
2022/05/24 08:26:31;;;;;;;1.10;0.40;;;19.90;75.00;;;;;;5069558;28;20025;-75
2022/05/24 08:28:57;;;;;;;0.40;0.30;;;19.10;79.00;;;;;;5069353;28;20036;-73
2022/05/24 08:31:23;;;;;;;1.95;0.55;;;18.70;78.40;;;;;;5066253;28;20039;-72
2022/05/24 08:33:51;;;;;;;1.00;0.50;;;18.90;79.00;;;;;;5069889;28;20036;-74
2022/05/24 08:36:18;;;;;;;0.30;0.20;;;18.70;78.10;;;;;;5068120;28;20351;-73
2022/05/24 08:38:44;;;;;;;0.70;0.43;;;18.70;76.50;;;;;;5068702;28;20028;-73
2022/05/24 08:41:45;;;;;;;0.45;0.30;;;18.90;76.60;;;;;;5069057;28;20033;-72
2022/05/24 08:50:05;;;;;;;0.40;0.32;;;19.20;73.20;;;;;;5061436;28;20044;-72
2022/05/24 08:52:36;;;;;;;1.85;0.35;;;18.90;75.20;;;;;;5071425;28;20099;-74
2022/05/24 08:55:04;;;;;;;0.40;0.30;;;19.60;76.50;;;;;;5049721;28;20040;-73
2022/05/24 08:57:42;;;;;;;0.30;0.25;;;19.70;72.10;;;;;;5069388;28;20374;-73
2022/05/24 09:00:13;;;;;;;2.72;0.35;;;19.40;73.40;;;;;;5066991;28;20143;-73
2022/05/24 09:02:43;;;;;;;;;;;18.90;75.80;;;;;;5053927;28;20036;-73
2022/05/24 09:05:18;;;;;;;;;;;18.50;75.90;;;;;;5068763;28;19908;-74
2022/05/24 09:08:16;;;;;;;0.52;0.28;;;17.60;76.60;;;;;;5069646;28;19913;-73
2022/05/24 09:10:48;;;;;;;0.50;0.30;;;16.90;75.90;;;;;;5068576;28;20490;-73
2022/05/24 09:13:47;;;;;;;0.90;0.60;;;16.90;76.90;;;;;;5071009;28;20036;-72
2022/05/24 09:16:16;;;;;;;0.50;0.35;;;17.20;75.20;;;;;;5073064;28;20496;-74
2022/05/24 09:18:51;;;;;;;1.10;0.43;;;17.80;74.00;;;;;;5072249;28;20040;-74
2022/05/24 09:21:29;;;;;;;1.15;0.30;;;18.30;73.70;;;;;;5065696;28;20032;-74
2022/05/24 09:24:30;;;;;;;0.43;0.40;;;18.60;74.30;;;;;;5066878;28;20029;-76
2022/05/24 09:27:06;;;;;;;1.05;0.40;;;19.00;74.50;;;;;;5069245;28;20044;-72
2022/05/24 09:29:32;;;;;;;0.75;0.47;;;18.20;75.80;;;;;;5053396;28;20035;-73
2022/05/24 09:32:07;;;;;;;0.65;0.38;;;18.00;76.80;;;;;;5062122;28;20025;-73
2022/05/24 09:34:35;;;;;;;1.08;0.32;;;18.60;75.90;;;;;;5060670;28;20028;-74
2022/05/24 09:37:04;;;;;;;1.45;0.45;;;18.90;75.60;;;;;;5047290;28;20056;-74
2022/05/24 09:39:55;;;;;;;0.87;0.40;;;19.40;70.90;;;;;;5062134;28;20036;-74
2022/05/24 09:42:36;;;;;;;0.73;0.35;;;19.90;72.00;;;;;;5064146;28;20278;-74
2022/05/24 09:45:23;;;;;;;0.60;0.47;;;20.50;69.30;;;;;;5068364;28;20025;-74
2022/05/24 09:47:58;;;;;;;0.50;0.30;;;19.90;71.50;;;;;;5066782;28;20044;-76
2022/05/24 09:50:35;;;;;;;0.85;0.55;;;20.10;67.40;;;;;;5064831;28;20029;-74
2022/05/24 09:53:08;;;;;;;1.83;0.75;;;19.60;68.60;;;;;;5068014;28;20024;-74
2022/05/24 09:55:41;;;;;;;1.02;0.40;;;19.30;67.40;;;;;;5065833;28;20025;-74
2022/05/24 09:58:30;;;;;;;1.65;0.60;;;19.60;67.10;;;;;;5065762;28;20113;-73
2022/05/24 10:01:02;;;;;;;0.82;0.50;;;19.50;67.90;;;;;;5062160;28;20036;-73
2022/05/24 10:03:41;;;;;;;2.40;0.68;;;19.30;67.90;;;;;;5060710;28;20024;-73
2022/05/24 10:06:26;;;;;;;0.63;0.50;;;19.50;66.20;;;;;;5060733;28;20037;-73
2022/05/24 10:09:20;;;;;;;1.70;0.65;;;19.60;67.40;;;;;;5068970;28;20044;-73
2022/05/24 10:11:55;;;;;;;0.80;0.60;;;19.80;67.50;;;;;;5058500;28;20421;-74
2022/05/24 10:14:48;;;;;;;0.30;0.30;;;19.80;67.30;;;;;;5071682;28;20039;-73
2022/05/24 10:17:20;;;;;;;2.28;0.90;;;19.90;67.30;;;;;;5065533;28;20033;-73
2022/05/24 10:20:27;;;;;;;0.43;0.40;;;20.70;65.80;;;;;;5067690;28;20043;-76
2022/05/24 10:23:05;;;;;;;0.47;0.40;;;20.50;64.90;;;;;;5069374;28;20044;-73
2022/05/24 10:25:46;;;;;;;1.00;0.40;;;20.50;65.80;;;;;;5070205;28;20037;-73
2022/05/24 10:28:22;;;;;;;2.55;0.50;;;20.20;64.90;;;;;;5068536;28;20036;-74
2022/05/24 10:31:13;;;;;;;1.67;0.50;;;19.60;62.40;;;;;;5064266;28;20041;-75
2022/05/24 10:40:16;;;;;;;1.17;0.65;;;19.60;61.90;;;;;;5038861;28;20048;-73
2022/05/24 10:42:49;;;;;;;0.35;0.30;;;19.60;60.60;;;;;;5067942;28;20028;-73
2022/05/24 10:45:25;;;;;;;0.45;0.45;;;19.70;61.20;;;;;;5077642;28;20029;-72
2022/05/24 10:48:07;;;;;;;0.95;0.32;;;19.70;59.80;;;;;;5077429;28;20047;-74
2022/05/24 10:50:46;;;;;;;0.30;0.20;;;19.30;60.00;;;;;;5073780;28;20036;-74
2022/05/24 10:53:25;;;;;;;4.45;1.13;;;19.30;58.80;;;;;;5069565;28;20493;-74
2022/05/24 10:56:01;;;;;;;6.60;0.90;;;19.70;60.00;;;;;;5064283;28;20028;-75
2022/05/24 10:58:32;;;;;;;1.08;0.43;;;19.60;60.10;;;;;;5064062;28;20044;-74
2022/05/24 11:01:13;;;;;;;1.45;0.10;;;19.80;59.90;;;;;;5065160;28;20036;-74
2022/05/24 11:03:47;;;;;;;1.08;0.40;;;20.00;58.10;;;;;;5070888;28;20040;-73
2022/05/24 11:06:35;;;;;;;0.47;0.40;;;19.90;59.90;;;;;;5070646;28;20039;-73
2022/05/24 11:09:06;;;;;;;1.35;0.60;;;20.00;58.60;;;;;;5062706;28;20060;-73
2022/05/24 11:12:06;;;;;;;0.73;0.40;;;19.90;59.50;;;;;;5064167;28;20041;-73
2022/05/24 11:14:41;;;;;;;0.30;0.30;;;20.40;60.00;;;;;;5067402;28;20039;-72
2022/05/24 11:17:11;;;;;;;0.55;0.30;;;20.30;59.70;;;;;;5068350;28;20033;-72
2022/05/24 11:19:42;;;;;;;0.30;0.25;;;20.10;59.70;;;;;;5061020;28;20041;-74
2022/05/24 11:22:24;;;;;;;0.30;0.30;;;20.10;59.40;;;;;;5061182;28;20045;-72
2022/05/24 11:25:08;;;;;;;0.93;0.40;;;20.50;60.00;;;;;;5060954;28;20033;-73
2022/05/24 11:28:00;;;;;;;0.50;0.40;;;20.90;58.30;;;;;;5069640;28;20044;-72
2022/05/24 11:30:39;;;;;;;0.60;0.38;;;21.30;56.30;;;;;;5052754;28;20052;-73
2022/05/24 11:33:05;;;;;;;0.80;0.60;;;21.30;56.60;;;;;;5059459;28;20048;-72
2022/05/24 11:35:40;;;;;;;0.50;0.40;;;21.30;57.50;;;;;;5068791;28;20031;-72
2022/05/24 11:38:20;;;;;;;0.98;0.40;;;21.30;56.40;;;;;;5047846;28;20228;-73
2022/05/24 11:40:57;;;;;;;1.17;0.38;;;20.70;56.80;;;;;;5068015;28;20044;-72
2022/05/24 11:43:35;;;;;;;0.77;0.52;;;20.90;54.90;;;;;;5069593;28;20029;-73
2022/05/24 11:46:38;;;;;;;1.10;0.80;;;21.30;55.30;;;;;;5067846;28;20155;-72
2022/05/24 11:49:27;;;;;;;0.30;0.30;;;21.30;55.30;;;;;;5065242;28;20052;-74
2022/05/24 11:52:21;;;;;;;0.28;0.20;;;21.00;56.10;;;;;;5068743;28;20029;-73
2022/05/24 11:54:47;;;;;;;3.97;0.57;;;21.40;54.90;;;;;;5064436;28;20040;-74
2022/05/24 11:57:14;;;;;;;0.50;0.30;;;21.60;54.80;;;;;;5069564;28;20517;-73
2022/05/24 11:59:40;;;;;;;0.65;0.40;;;21.10;55.50;;;;;;5071662;28;20036;-74
2022/05/24 12:02:32;;;;;;;0.77;0.30;;;21.30;55.00;;;;;;5068445;28;20043;-73
2022/05/24 12:07:54;;;;;;;0.75;0.50;;;21.20;55.10;;;;;;5070926;28;20047;-73
2022/05/24 12:10:20;;;;;;;0.43;0.32;;;21.50;55.50;;;;;;5067019;28;20076;-73
2022/05/24 12:12:55;;;;;;;1.38;0.60;;;21.40;54.40;;;;;;5072256;28;20036;-72
2022/05/24 12:15:30;;;;;;;0.20;0.20;;;21.40;53.40;;;;;;5068667;28;20032;-73
2022/05/24 12:17:58;;;;;;;0.60;0.28;;;21.50;53.10;;;;;;5068696;28;20071;-73
2022/05/24 12:20:34;;;;;;;0.32;0.22;;;21.80;51.10;;;;;;5067581;28;20040;-73
2022/05/24 12:23:22;;;;;;;0.30;0.30;;;22.00;49.70;;;;;;5073663;28;20032;-74
2022/05/24 12:25:59;;;;;;;0.20;0.20;;;22.10;50.30;;;;;;5067849;28;20028;-75
2022/05/24 12:28:50;;;;;;;1.25;0.40;;;21.50;50.50;;;;;;5072335;28;20043;-73
2022/05/24 12:31:19;;;;;;;3.80;0.40;;;21.80;49.20;;;;;;5058945;28;20036;-73
2022/05/24 12:34:01;;;;;;;0.32;0.20;;;22.00;49.10;;;;;;5071221;28;20032;-73
2022/05/24 12:36:39;;;;;;;0.70;0.38;;;22.30;51.00;;;;;;5067839;28;20037;-73
2022/05/24 12:39:12;;;;;;;0.30;0.22;;;22.50;49.00;;;;;;5067489;28;20465;-74
2022/05/24 12:41:44;;;;;;;3.47;0.25;;;22.70;49.40;;;;;;5067631;28;20037;-74
2022/05/24 12:44:12;;;;;;;0.70;0.38;;;22.60;49.50;;;;;;5072690;28;20035;-74
2022/05/24 12:46:40;;;;;;;0.40;0.30;;;22.70;49.40;;;;;;5068687;28;20055;-73
2022/05/24 12:49:08;;;;;;;3.38;0.40;;;22.20;50.40;;;;;;5073252;28;20036;-73
2022/05/24 12:51:35;;;;;;;0.95;0.40;;;21.40;52.00;;;;;;5067310;28;20033;-72
2022/05/24 12:54:09;;;;;;;0.30;0.30;;;20.60;53.70;;;;;;5071445;28;20028;-73
2022/05/24 12:56:36;;;;;;;1.65;0.57;;;20.20;54.50;;;;;;5072986;28;20032;-72
2022/05/24 12:59:11;;;;;;;0.45;0.28;;;20.50;54.10;;;;;;5072669;28;20052;-72
2022/05/24 13:01:41;;;;;;;0.63;0.30;;;20.80;53.80;;;;;;5070327;28;20040;-73
2022/05/24 13:04:21;;;;;;;1.48;0.70;;;21.00;53.80;;;;;;5068603;28;20055;-74
2022/05/24 13:07:24;;;;;;;0.73;0.57;;;21.20;53.40;;;;;;5053766;28;20043;-72
2022/05/24 13:09:51;;;;;;;0.50;0.20;;;21.30;52.10;;;;;;5069318;28;20385;-72
2022/05/24 13:12:17;;;;;;;0.45;0.20;;;21.20;52.40;;;;;;5066882;28;20029;-73
2022/05/24 13:14:57;;;;;;;1.55;0.45;;;21.40;53.40;;;;;;5070174;28;20037;-72
2022/05/24 13:17:27;;;;;;;0.40;0.40;;;21.90;52.10;;;;;;5069732;28;20034;-73
2022/05/24 13:19:59;;;;;;;1.17;0.40;;;22.20;51.10;;;;;;5069293;28;20055;-73
2022/05/24 13:22:49;;;;;;;0.57;0.40;;;21.80;49.60;;;;;;5070241;28;20025;-72
2022/05/24 13:25:21;;;;;;;1.30;0.65;;;21.50;49.80;;;;;;5064221;28;20473;-73
2022/05/24 13:28:03;;;;;;;0.88;0.30;;;21.50;50.30;;;;;;5068591;28;20098;-73
2022/05/24 13:33:50;;;;;;;0.82;0.57;;;21.50;50.60;;;;;;5071573;28;20039;-72
2022/05/24 13:36:29;;;;;;;0.20;0.20;;;21.50;51.10;;;;;;5067470;28;20040;-72
2022/05/24 13:39:04;;;;;;;0.63;0.55;;;21.50;49.40;;;;;;5035462;28;20037;-73
2022/05/24 13:41:38;;;;;;;0.50;0.30;;;21.00;51.00;;;;;;5069124;28;20043;-73
2022/05/24 13:44:31;;;;;;;0.57;0.40;;;21.10;50.90;;;;;;5072321;28;20040;-73
2022/05/24 13:47:04;;;;;;;1.90;0.40;;;21.10;51.60;;;;;;5035305;28;20045;-73
2022/05/24 13:49:43;;;;;;;0.20;0.20;;;21.20;50.60;;;;;;5071955;28;20042;-73
2022/05/24 13:52:17;;;;;;;0.40;0.30;;;21.40;51.40;;;;;;5071988;28;20485;-73
2022/05/24 13:54:44;;;;;;;1.13;0.50;;;22.20;50.20;;;;;;5072950;28;20028;-74
2022/05/24 13:57:28;;;;;;;0.30;0.30;;;21.80;49.70;;;;;;5068834;28;20473;-74